createdAt,value
2018-08-06T00:01:21.720Z,6.93
2018-08-06T00:03:52.065Z,7.23
2018-08-06T00:06:22.500Z,6.77
2018-08-06T00:08:52.852Z,7.97
2018-08-06T00:11:23.289Z,7.37
2018-08-06T00:13:53.587Z,7.83
2018-08-06T00:16:24.220Z,7.60
2018-08-06T00:18:54.537Z,7.53
2018-08-06T00:21:25.013Z,8.03
2018-08-06T00:23:55.312Z,7.27
2018-08-06T00:26:25.911Z,7.87
2018-08-06T00:28:56.233Z,7.97
2018-08-06T00:31:26.789Z,8.00
2018-08-06T00:33:57.084Z,9.57
2018-08-06T00:36:27.556Z,9.90
2018-08-06T00:38:57.792Z,9.80
2018-08-06T00:41:28.193Z,10.50
2018-08-06T00:43:58.534Z,10.43
2018-08-06T00:46:28.909Z,11.23
2018-08-06T00:48:59.294Z,10.37
2018-08-06T00:51:30.198Z,9.77
2018-08-06T00:54:00.917Z,10.30
2018-08-06T00:56:31.805Z,10.47
2018-08-06T00:59:02.054Z,10.17
2018-08-06T01:01:32.404Z,10.37
2018-08-06T01:04:02.765Z,11.20
2018-08-06T01:06:33.216Z,10.87
2018-08-06T01:09:03.794Z,9.67
2018-08-06T01:11:34.294Z,9.03
2018-08-06T01:14:04.820Z,9.43
2018-08-06T01:16:35.144Z,8.83
2018-08-06T01:19:05.794Z,9.10
2018-08-06T01:21:36.438Z,8.40
2018-08-06T01:24:06.842Z,7.93
2018-08-06T01:26:37.554Z,8.20
2018-08-06T01:29:07.869Z,7.77
2018-08-06T01:31:38.220Z,6.77
2018-08-06T01:34:08.613Z,5.30
2018-08-06T01:36:39.182Z,5.40
2018-08-06T01:39:12.363Z,5.20
2018-08-06T01:41:42.784Z,5.00
2018-08-06T01:44:13.102Z,5.13
2018-08-06T01:46:43.836Z,5.20
2018-08-06T01:49:14.193Z,4.80
2018-08-06T01:51:44.673Z,5.00
2018-08-06T01:54:14.934Z,4.60
2018-08-06T01:56:45.371Z,5.20
2018-08-06T01:59:15.620Z,5.20
2018-08-06T02:01:46.053Z,5.20
2018-08-06T02:04:16.445Z,5.33
2018-08-06T02:06:47.085Z,5.93
2018-08-06T02:09:17.356Z,5.57
2018-08-06T02:11:47.857Z,5.30
2018-08-06T02:14:18.169Z,5.40
2018-08-06T02:16:48.567Z,5.77
2018-08-06T02:19:19.836Z,5.43
2018-08-06T02:21:50.207Z,5.43
2018-08-06T02:24:21.088Z,5.20
2018-08-06T02:26:51.488Z,4.93
2018-08-06T02:29:21.904Z,4.87
2018-08-06T02:31:52.433Z,5.80
2018-08-06T02:34:22.866Z,5.40
2018-08-06T02:36:53.389Z,5.10
2018-08-06T02:39:23.724Z,5.97
2018-08-06T02:41:54.439Z,4.83
2018-08-06T02:44:24.830Z,5.40
2018-08-06T02:46:55.380Z,4.80
2018-08-06T02:49:25.661Z,5.03
2018-08-06T02:51:55.995Z,4.80
2018-08-06T02:54:26.297Z,5.10
2018-08-06T02:56:56.637Z,5.07
2018-08-06T02:59:27.171Z,5.80
2018-08-06T03:01:57.528Z,4.87
2018-08-06T03:04:27.914Z,4.93
2018-08-06T03:06:58.305Z,5.23
2018-08-06T03:09:28.800Z,4.90
2018-08-06T03:11:59.072Z,5.50
2018-08-06T03:14:29.358Z,5.77
2018-08-06T03:17:00.006Z,5.37
2018-08-06T03:19:30.493Z,5.87
2018-08-06T03:22:01.817Z,4.63
2018-08-06T03:24:32.212Z,5.90
2018-08-06T03:27:02.544Z,5.77
2018-08-06T03:29:33.168Z,5.43
2018-08-06T03:32:04.049Z,5.80
2018-08-06T03:34:34.446Z,5.17
2018-08-06T03:37:04.825Z,5.50
2018-08-06T03:39:35.178Z,5.57
2018-08-06T03:42:05.702Z,5.13
2018-08-06T03:44:35.960Z,5.50
2018-08-06T03:47:06.429Z,8.23
2018-08-06T03:49:36.806Z,6.27
2018-08-06T03:52:07.302Z,5.80
2018-08-06T03:54:37.604Z,5.93
2018-08-06T03:57:08.154Z,5.97
2018-08-06T03:59:38.506Z,6.23
2018-08-06T04:02:09.432Z,5.60
2018-08-06T04:04:39.969Z,5.63
2018-08-06T04:07:10.863Z,7.63
2018-08-06T04:09:41.564Z,10.73
2018-08-06T04:12:12.351Z,9.70
2018-08-06T04:14:43.065Z,7.23
2018-08-06T04:17:13.860Z,7.20
2018-08-06T04:19:44.529Z,7.60
2018-08-06T04:22:14.985Z,7.57
2018-08-06T04:24:45.276Z,6.57
2018-08-06T04:27:15.660Z,5.87
2018-08-06T04:29:45.881Z,5.83
2018-08-06T04:32:16.331Z,8.07
2018-08-06T04:34:47.045Z,6.33
2018-08-06T04:37:17.805Z,5.67
2018-08-06T04:39:48.460Z,6.07
2018-08-06T04:42:19.110Z,6.70
2018-08-06T04:44:49.793Z,5.57
2018-08-06T04:47:20.530Z,4.77
2018-08-06T04:49:51.241Z,4.53
2018-08-06T04:52:21.969Z,5.23
2018-08-06T04:54:52.946Z,5.13
2018-08-06T04:57:23.614Z,4.90
2018-08-06T04:59:54.324Z,5.57
2018-08-06T05:02:24.929Z,5.07
2018-08-06T05:04:58.132Z,4.90
2018-08-06T05:07:28.443Z,4.93
2018-08-06T05:09:59.265Z,4.70
2018-08-06T05:12:30.036Z,4.10
2018-08-06T05:15:00.696Z,4.43
2018-08-06T05:17:31.318Z,4.37
2018-08-06T05:20:02.346Z,4.50
2018-08-06T05:22:32.993Z,4.47
2018-08-06T05:25:03.781Z,5.27
2018-08-06T05:27:35.174Z,5.10
2018-08-06T05:30:08.505Z,4.87
2018-08-06T05:32:39.280Z,4.43
2018-08-06T05:35:10.941Z,4.77
2018-08-06T05:37:42.342Z,4.87
2018-08-06T05:40:12.748Z,5.50
2018-08-06T05:42:43.294Z,5.27
2018-08-06T05:45:13.972Z,4.90
2018-08-06T05:47:44.629Z,4.53
2018-08-06T05:50:15.445Z,4.40
2018-08-06T05:52:46.084Z,4.40
2018-08-06T05:55:16.857Z,4.50
2018-08-06T05:57:47.533Z,4.33
2018-08-06T06:00:19.717Z,4.67
2018-08-06T06:02:50.310Z,4.57
2018-08-06T06:05:21.033Z,4.87
2018-08-06T06:07:51.733Z,4.00
2018-08-06T06:10:22.688Z,4.47
2018-08-06T06:12:53.452Z,4.00
2018-08-06T06:15:24.465Z,4.77
2018-08-06T06:17:55.224Z,4.47
2018-08-06T06:20:26.002Z,5.17
2018-08-06T06:22:56.575Z,4.63
2018-08-06T06:25:27.937Z,4.03
2018-08-06T06:27:58.639Z,4.30
2018-08-06T06:30:29.693Z,4.70
2018-08-06T06:33:00.398Z,5.03
2018-08-06T06:35:31.281Z,6.33
2018-08-06T06:38:02.008Z,4.97
2018-08-06T06:40:33.709Z,5.73
2018-08-06T06:43:04.446Z,5.90
2018-08-06T06:45:35.388Z,16.20
2018-08-06T06:48:06.047Z,5.60
2018-08-06T06:50:37.032Z,5.10
2018-08-06T06:53:07.864Z,5.00
2018-08-06T06:55:38.598Z,5.07
2018-08-06T06:58:09.410Z,4.77
2018-08-06T07:00:40.598Z,4.73
2018-08-06T07:03:11.186Z,4.30
2018-08-06T07:05:42.873Z,5.27
2018-08-06T07:08:13.389Z,5.07
2018-08-06T07:10:44.188Z,4.80
2018-08-06T07:13:14.914Z,4.83
2018-08-06T07:15:45.693Z,5.00
2018-08-06T07:18:16.262Z,4.97
2018-08-06T07:20:47.134Z,4.20
2018-08-06T07:23:17.800Z,5.00
2018-08-06T07:25:50.029Z,3.90
2018-08-06T07:28:20.624Z,3.90
2018-08-06T07:30:51.157Z,5.10
2018-08-06T07:33:21.892Z,3.83
2018-08-06T07:35:52.798Z,4.50
2018-08-06T07:38:23.459Z,4.37
2018-08-06T07:40:54.489Z,4.20
2018-08-06T07:43:25.239Z,6.73
2018-08-06T07:45:55.937Z,3.87
2018-08-06T07:48:26.625Z,3.23
2018-08-06T07:50:57.699Z,3.70
2018-08-06T07:53:28.566Z,3.43
2018-08-06T07:56:00.413Z,3.70
2018-08-06T07:58:31.438Z,4.92
2018-08-06T08:01:02.419Z,5.37
2018-08-06T08:03:32.609Z,3.75
2018-08-06T08:06:04.809Z,3.80
2018-08-06T08:08:35.741Z,4.55
2018-08-06T08:11:06.746Z,3.50
2018-08-06T08:13:37.144Z,3.72
2018-08-06T08:16:08.161Z,3.90
2018-08-06T08:18:38.283Z,3.60
2018-08-06T08:21:09.210Z,3.67
2018-08-06T08:23:39.887Z,3.77
2018-08-06T08:26:10.689Z,4.05
2018-08-06T08:28:41.081Z,3.40
2018-08-06T08:31:11.655Z,3.15
2018-08-06T08:33:42.125Z,3.60
2018-08-06T08:36:12.553Z,3.80
2018-08-06T08:38:42.941Z,3.37
2018-08-06T08:41:13.469Z,10.88
2018-08-06T08:43:43.826Z,3.80
2018-08-06T08:46:14.329Z,3.65
2018-08-06T08:48:44.793Z,3.37
2018-08-06T08:51:15.249Z,3.70
2018-08-06T08:53:45.995Z,3.62
2018-08-06T08:56:16.176Z,3.83
2018-08-06T08:58:47.153Z,4.12
2018-08-06T09:01:17.625Z,5.72
2018-08-06T09:03:48.008Z,3.67
2018-08-06T09:06:18.745Z,4.15
2018-08-06T09:08:49.141Z,3.90
2018-08-06T09:11:20.004Z,3.55
2018-08-06T09:13:50.435Z,4.08
2018-08-06T09:16:20.961Z,4.00
2018-08-06T09:18:51.446Z,3.75
2018-08-06T09:21:22.011Z,3.77
2018-08-06T09:23:52.502Z,3.65
2018-08-06T09:26:23.279Z,4.33
2018-08-06T09:28:54.046Z,3.75
2018-08-06T09:31:24.863Z,2.92
2018-08-06T09:33:55.627Z,3.90
2018-08-06T09:36:26.422Z,5.33
2018-08-06T09:38:56.809Z,3.00
2018-08-06T09:41:28.181Z,2.75
2018-08-06T09:43:59.383Z,3.20
2018-08-06T09:46:30.457Z,3.20
2018-08-06T09:49:01.045Z,2.90
2018-08-06T09:51:31.915Z,4.22
2018-08-06T09:54:02.669Z,2.90
2018-08-06T09:56:33.153Z,3.87
2018-08-06T09:59:03.554Z,3.27
2018-08-06T10:01:39.082Z,3.22
2018-08-06T10:04:09.818Z,3.58
2018-08-06T10:06:41.700Z,10.75
2018-08-06T10:09:12.316Z,3.65
2018-08-06T10:11:42.697Z,4.12
2018-08-06T10:14:13.420Z,2.90
2018-08-06T10:16:44.279Z,3.17
2018-08-06T10:19:15.083Z,3.47
2018-08-06T10:21:45.889Z,2.75
2018-08-06T10:24:16.557Z,3.10
2018-08-06T10:26:47.537Z,3.05
2018-08-06T10:29:18.225Z,3.60
2018-08-06T10:31:48.965Z,3.45
2018-08-06T10:34:19.713Z,3.05
2018-08-06T10:36:50.533Z,3.42
2018-08-06T10:39:21.397Z,3.20
2018-08-06T10:41:52.158Z,2.92
2018-08-06T10:44:22.641Z,5.37
2018-08-06T10:46:53.463Z,3.47
2018-08-06T10:49:24.199Z,2.83
2018-08-06T10:51:54.816Z,3.55
2018-08-06T10:54:25.637Z,3.20
2018-08-06T10:56:56.677Z,2.80
2018-08-06T10:59:27.475Z,3.02
2018-08-06T11:01:58.158Z,3.45
2018-08-06T11:04:28.831Z,4.55
2018-08-06T11:06:59.854Z,3.30
2018-08-06T11:09:30.514Z,3.42
2018-08-06T11:12:01.237Z,3.40
2018-08-06T11:17:07.886Z,3.02
2018-08-06T11:19:38.540Z,3.83
2018-08-06T11:22:09.524Z,2.80
2018-08-06T11:24:40.106Z,2.92
2018-08-06T11:27:11.272Z,10.28
2018-08-06T11:29:41.901Z,2.70
2018-08-06T11:32:12.557Z,3.25
2018-08-06T11:34:43.218Z,3.17
2018-08-06T11:37:13.966Z,3.30
2018-08-06T11:39:44.605Z,4.28
2018-08-06T11:42:15.397Z,2.95
2018-08-06T11:44:46.163Z,3.40
2018-08-06T11:47:16.841Z,3.20
2018-08-06T11:49:47.489Z,3.65
2018-08-06T11:52:18.541Z,3.22
2018-08-06T11:54:49.133Z,3.20
2018-08-06T11:57:20.355Z,2.75
2018-08-06T11:59:51.003Z,3.58
2018-08-06T12:02:21.792Z,3.20
2018-08-06T12:04:52.269Z,4.25
2018-08-06T12:07:23.154Z,3.98
2018-08-06T12:09:53.825Z,2.98
2018-08-06T12:12:24.665Z,3.12
2018-08-06T12:14:55.386Z,3.35
2018-08-06T12:17:26.418Z,3.10
2018-08-06T12:19:57.074Z,3.50
2018-08-06T12:22:27.855Z,3.77
2018-08-06T12:24:58.526Z,6.08
2018-08-06T12:27:29.396Z,3.67
2018-08-06T12:30:05.202Z,3.00
2018-08-06T12:32:36.191Z,3.30
2018-08-06T12:35:07.518Z,5.45
2018-08-06T12:37:38.324Z,3.27
2018-08-06T12:40:13.364Z,2.90
2018-08-06T12:42:44.313Z,3.00
2018-08-06T12:45:15.954Z,2.67
2018-08-06T12:47:47.134Z,3.80
2018-08-06T12:50:18.408Z,3.15
2018-08-06T12:52:49.366Z,5.03
2018-08-06T12:55:20.121Z,3.12
2018-08-06T12:57:50.905Z,3.10
2018-08-06T13:00:24.940Z,3.02
2018-08-06T13:02:56.177Z,3.20
2018-08-06T13:05:26.770Z,2.70
2018-08-06T13:07:57.679Z,3.45
2018-08-06T13:10:28.517Z,2.85
2018-08-06T13:12:59.290Z,5.55
2018-08-06T13:15:29.910Z,4.83
2018-08-06T13:18:00.717Z,3.12
2018-08-06T13:20:31.466Z,2.58
2018-08-06T13:23:01.949Z,3.40
2018-08-06T13:25:32.524Z,3.22
2018-08-06T13:28:04.585Z,3.22
2018-08-06T13:30:35.374Z,3.62
2018-08-06T13:33:06.301Z,3.37
2018-08-06T13:35:37.073Z,2.60
2018-08-06T13:38:08.674Z,3.50
2018-08-06T13:40:39.525Z,2.87
2018-08-06T13:43:11.129Z,4.95
2018-08-06T13:45:41.781Z,3.00
2018-08-06T13:48:13.363Z,3.35
2018-08-06T13:50:43.869Z,3.05
2018-08-06T13:53:14.710Z,3.80
2018-08-06T13:55:45.379Z,3.17
2018-08-06T13:58:16.031Z,3.15
2018-08-06T14:00:46.698Z,3.27
2018-08-06T14:03:17.605Z,3.45
2018-08-06T14:05:48.263Z,2.98
2018-08-06T14:08:19.188Z,3.08
2018-08-06T14:10:50.133Z,3.08
2018-08-06T14:13:20.925Z,2.87
2018-08-06T14:15:51.618Z,2.83
2018-08-06T14:18:22.391Z,3.05
2018-08-06T14:20:53.118Z,3.52
2018-08-06T14:23:23.530Z,2.80
2018-08-06T14:25:54.296Z,2.90
2018-08-06T14:28:25.121Z,3.22
2018-08-06T14:30:55.869Z,2.90
2018-08-06T14:33:26.993Z,2.70
2018-08-06T14:35:57.710Z,2.90
2018-08-06T14:38:28.498Z,3.10
2018-08-06T14:40:59.009Z,2.58
2018-08-06T14:43:29.691Z,3.33
2018-08-06T14:46:00.473Z,4.05
2018-08-06T14:48:31.161Z,4.42
2018-08-06T14:51:01.781Z,2.77
2018-08-06T14:53:32.571Z,3.10
2018-08-06T14:56:03.441Z,7.62
2018-08-06T14:58:34.368Z,2.75
2018-08-06T15:01:05.153Z,2.90
2018-08-06T15:03:35.988Z,2.92
2018-08-06T15:06:06.851Z,2.77
2018-08-06T15:08:37.514Z,3.35
2018-08-06T15:11:08.282Z,2.80
2018-08-06T15:13:39.089Z,2.87
2018-08-06T15:16:09.798Z,3.00
2018-08-06T15:18:40.863Z,2.42
2018-08-06T15:21:11.505Z,2.75
2018-08-06T15:23:42.318Z,2.70
2018-08-06T15:26:13.393Z,2.62
2018-08-06T15:28:44.053Z,3.05
2018-08-06T15:31:14.305Z,2.70
2018-08-06T15:33:45.268Z,2.42
2018-08-06T15:36:15.883Z,3.47
2018-08-06T15:38:46.388Z,3.52
2018-08-06T15:41:17.152Z,2.50
2018-08-06T15:43:47.852Z,3.10
2018-08-06T15:46:18.155Z,2.75
2018-08-06T15:48:48.646Z,3.83
2018-08-06T15:51:19.021Z,3.77
2018-08-06T15:53:49.697Z,3.55
2018-08-06T15:56:20.325Z,3.15
2018-08-06T15:58:51.111Z,3.55
2018-08-06T16:01:21.363Z,3.50
2018-08-06T16:03:51.821Z,3.30
2018-08-06T16:06:22.155Z,3.00
2018-08-06T16:08:52.468Z,6.75
2018-08-06T16:11:22.945Z,4.12
2018-08-06T16:13:53.601Z,5.65
2018-08-06T16:16:23.852Z,4.75
2018-08-06T16:18:54.437Z,3.47
2018-08-06T16:21:24.838Z,4.28
2018-08-06T16:23:55.253Z,3.80
2018-08-06T16:26:26.069Z,3.40
2018-08-06T16:28:56.883Z,3.10
2018-08-06T16:31:27.615Z,3.08
2018-08-06T16:33:58.541Z,3.30
2018-08-06T16:36:28.822Z,3.58
2018-08-06T16:38:59.185Z,3.20
2018-08-06T16:41:29.912Z,2.77
2018-08-06T16:44:00.536Z,3.60
2018-08-06T16:46:30.891Z,2.72
2018-08-06T16:49:01.641Z,2.60
2018-08-06T16:51:32.128Z,3.12
2018-08-06T16:54:02.809Z,3.17
2018-08-06T16:56:33.343Z,2.70
2018-08-06T16:59:03.660Z,3.90
2018-08-06T17:01:34.029Z,3.00
2018-08-06T17:04:04.700Z,3.20
2018-08-06T17:06:35.268Z,3.40
2018-08-06T17:09:07.629Z,3.27
2018-08-06T17:11:38.032Z,3.27
2018-08-06T17:14:08.832Z,3.57
2018-08-06T17:16:39.601Z,3.30
2018-08-06T17:19:10.339Z,3.33
2018-08-06T17:21:41.242Z,3.60
2018-08-06T17:24:11.961Z,3.47
2018-08-06T17:26:42.724Z,4.27
2018-08-06T17:29:13.065Z,3.60
2018-08-06T17:31:43.485Z,3.47
2018-08-06T17:34:13.871Z,3.50
2018-08-06T17:36:44.136Z,3.43
2018-08-06T17:39:15.004Z,4.07
2018-08-06T17:41:45.692Z,3.60
2018-08-06T17:44:16.485Z,3.80
2018-08-06T17:46:51.185Z,3.33
2018-08-06T17:49:21.572Z,3.13
2018-08-06T17:51:51.972Z,3.33
2018-08-06T17:54:22.341Z,3.83
2018-08-06T17:56:52.600Z,4.00
2018-08-06T17:59:23.085Z,4.20
2018-08-06T18:01:53.394Z,3.83
2018-08-06T18:04:24.287Z,4.07
2018-08-06T18:06:54.997Z,4.37
2018-08-06T18:09:25.833Z,4.70
2018-08-06T18:11:56.437Z,4.60
2018-08-06T18:14:27.230Z,4.63
2018-08-06T18:16:57.720Z,4.23
2018-08-06T18:19:28.661Z,4.07
2018-08-06T18:21:59.344Z,3.70
2018-08-06T18:24:30.041Z,4.57
2018-08-06T18:27:00.732Z,4.10
2018-08-06T18:29:31.368Z,3.93
2018-08-06T18:32:02.151Z,4.00
2018-08-06T18:34:33.091Z,4.30
2018-08-06T18:37:03.676Z,4.63
2018-08-06T18:39:34.509Z,4.63
2018-08-06T18:42:05.005Z,5.20
2018-08-06T18:44:35.518Z,3.93
2018-08-06T18:47:06.669Z,4.27
2018-08-06T18:49:38.430Z,4.70
2018-08-06T18:52:09.184Z,4.20
2018-08-06T18:54:40.237Z,4.00
2018-08-06T18:57:10.888Z,3.90
2018-08-06T18:59:41.653Z,4.53
2018-08-06T19:02:12.350Z,4.23
2018-08-06T19:04:43.177Z,4.50
2018-08-06T19:07:13.488Z,4.13
2018-08-06T19:09:44.384Z,4.47
2018-08-06T19:12:19.709Z,4.30
2018-08-06T19:14:50.772Z,4.53
2018-08-06T19:17:21.425Z,4.70
2018-08-06T19:19:52.322Z,4.17
2018-08-06T19:22:22.670Z,4.33
2018-08-06T19:24:58.073Z,4.97
2018-08-06T19:27:28.793Z,4.30
2018-08-06T19:29:59.943Z,4.23
2018-08-06T19:32:30.276Z,4.67
2018-08-06T19:35:00.778Z,4.63
2018-08-06T19:37:36.248Z,4.60
2018-08-06T19:40:08.510Z,4.60
2018-08-06T19:42:43.855Z,5.20
2018-08-06T19:45:14.092Z,4.60
2018-08-06T19:47:44.476Z,4.30
2018-08-06T19:50:20.339Z,4.70
2018-08-06T19:52:50.810Z,4.43
2018-08-06T19:55:26.472Z,4.53
2018-08-06T19:57:56.993Z,4.83
2018-08-06T20:00:27.569Z,3.97
2018-08-06T20:02:58.188Z,4.97
2018-08-06T20:05:28.791Z,4.30
2018-08-06T20:07:59.133Z,4.47
2018-08-06T20:10:30.193Z,4.53
2018-08-06T20:13:00.560Z,4.33
2018-08-06T20:15:31.335Z,4.33
2018-08-06T20:18:01.774Z,4.93
2018-08-06T20:20:32.072Z,5.57
2018-08-06T20:23:02.454Z,5.37
2018-08-06T20:25:32.896Z,5.57
2018-08-06T20:28:03.296Z,5.67
2018-08-06T20:30:34.234Z,6.03
2018-08-06T20:33:04.199Z,5.33
2018-08-06T20:35:34.764Z,5.13
2018-08-06T20:38:05.179Z,5.13
2018-08-06T20:40:35.601Z,5.07
2018-08-06T20:43:06.033Z,4.93
2018-08-06T20:45:36.471Z,4.77
2018-08-06T20:48:07.732Z,5.17
2018-08-06T20:50:38.169Z,5.30
2018-08-06T20:53:08.581Z,4.97
2018-08-06T20:55:39.029Z,4.60
2018-08-06T20:58:09.429Z,5.20
2018-08-06T21:00:39.829Z,5.10
2018-08-06T21:03:10.097Z,5.73
2018-08-06T21:05:40.476Z,5.90
2018-08-06T21:08:10.965Z,5.63
2018-08-06T21:10:41.712Z,5.03
2018-08-06T21:13:12.124Z,5.67
2018-08-06T21:15:42.637Z,5.27
2018-08-06T21:18:13.017Z,5.27
2018-08-06T21:20:43.673Z,5.63
2018-08-06T21:23:13.996Z,6.70
2018-08-06T21:25:44.633Z,5.60
2018-08-06T21:28:15.054Z,6.00
2018-08-06T21:30:45.619Z,5.87
2018-08-06T21:33:16.019Z,5.63
2018-08-06T21:35:46.808Z,5.13
2018-08-06T21:38:17.164Z,5.40
2018-08-06T21:40:47.564Z,4.90
2018-08-06T21:43:17.896Z,5.67
2018-08-06T21:45:48.312Z,5.90
2018-08-06T21:48:18.667Z,4.97
2018-08-06T21:50:50.329Z,5.17
2018-08-06T21:53:21.296Z,5.50
2018-08-06T21:55:51.765Z,5.93
2018-08-06T21:58:22.070Z,5.37
2018-08-06T22:00:52.718Z,5.50
2018-08-06T22:03:23.099Z,5.20
2018-08-06T22:05:53.393Z,4.67
2018-08-06T22:08:23.729Z,5.10
2018-08-06T22:10:54.152Z,5.57
2018-08-06T22:13:24.613Z,5.30
2018-08-06T22:15:55.137Z,5.27
2018-08-06T22:18:25.497Z,5.13
2018-08-06T22:20:56.043Z,5.93
2018-08-06T22:23:26.458Z,5.30
2018-08-06T22:25:57.052Z,5.27
2018-08-06T22:28:27.309Z,5.27
2018-08-06T22:30:57.798Z,5.70
2018-08-06T22:33:28.093Z,5.00
2018-08-06T22:35:58.530Z,5.63
2018-08-06T22:38:28.868Z,5.17
2018-08-06T22:40:59.233Z,5.77
2018-08-06T22:43:29.541Z,5.10
2018-08-06T22:45:59.969Z,5.80
2018-08-06T22:48:30.248Z,6.20
2018-08-06T22:51:00.627Z,5.30
2018-08-06T22:53:31.158Z,5.33
2018-08-06T22:56:06.754Z,5.43
2018-08-06T22:58:38.006Z,5.37
2018-08-06T23:01:10.864Z,5.30
2018-08-06T23:03:41.160Z,5.37
2018-08-06T23:06:11.565Z,5.37
2018-08-06T23:08:41.871Z,5.30
2018-08-06T23:11:12.496Z,5.00
2018-08-06T23:13:42.861Z,4.60
2018-08-06T23:16:14.869Z,4.50
2018-08-06T23:18:45.172Z,5.10
2018-08-06T23:21:15.509Z,4.53
2018-08-06T23:23:45.880Z,4.40
2018-08-06T23:26:16.496Z,5.03
2018-08-06T23:28:46.889Z,4.50
2018-08-06T23:31:18.221Z,4.43
2018-08-06T23:33:48.517Z,4.00
2018-08-06T23:36:18.977Z,4.73
2018-08-06T23:38:49.291Z,4.77
2018-08-06T23:41:19.664Z,4.57
2018-08-06T23:43:49.924Z,4.80
2018-08-06T23:46:20.267Z,4.43
2018-08-06T23:48:50.566Z,4.53
2018-08-06T23:51:21.317Z,4.50
2018-08-06T23:53:51.653Z,5.50
2018-08-06T23:56:22.097Z,5.57
2018-08-06T23:58:52.336Z,5.07
